createdAt,value
2018-07-31T00:02:24.152Z,45.56
2018-07-31T00:04:51.438Z,45.68
2018-07-31T00:07:18.759Z,46.06
2018-07-31T00:09:46.190Z,46.80
2018-07-31T00:12:13.484Z,46.87
2018-07-31T00:14:40.786Z,47.43
2018-07-31T00:21:33.885Z,47.75
2018-07-31T00:24:01.192Z,48.76
2018-07-31T00:26:28.417Z,49.27
2018-07-31T00:28:55.779Z,48.93
2018-07-31T00:31:23.009Z,49.43
2018-07-31T00:33:50.289Z,50.23
2018-07-31T00:36:17.581Z,50.44
2018-07-31T00:38:44.843Z,50.72
2018-07-31T00:41:12.076Z,51.09
2018-07-31T00:43:39.399Z,51.39
2018-07-31T00:46:06.670Z,51.87
2018-07-31T00:48:33.957Z,51.82
2018-07-31T00:51:01.239Z,53.04
2018-07-31T00:55:55.226Z,52.79
2018-07-31T00:58:22.474Z,52.41
2018-07-31T01:00:49.730Z,52.66
2018-07-31T01:03:16.996Z,51.97
2018-07-31T01:05:44.245Z,52.38
2018-07-31T01:08:11.577Z,52.60
2018-07-31T01:10:38.830Z,52.65
2018-07-31T01:13:06.113Z,53.01
2018-07-31T01:15:36.218Z,53.93
2018-07-31T01:18:03.507Z,54.24
2018-07-31T01:20:30.941Z,54.49
2018-07-31T01:22:58.260Z,54.85
2018-07-31T01:25:25.547Z,55.00
2018-07-31T01:27:52.842Z,54.93
2018-07-31T01:30:20.086Z,55.35
2018-07-31T01:32:47.379Z,54.79
2018-07-31T01:35:14.660Z,54.64
2018-07-31T01:37:41.940Z,54.64
2018-07-31T01:40:09.269Z,54.70
2018-07-31T01:42:36.731Z,54.86
2018-07-31T01:45:04.113Z,55.29
2018-07-31T01:47:31.430Z,55.46
2018-07-31T01:49:58.725Z,55.20
2018-07-31T01:52:26.035Z,55.45
2018-07-31T01:54:53.383Z,55.62
2018-07-31T01:57:20.669Z,56.05
2018-07-31T01:59:47.971Z,56.13
2018-07-31T02:02:15.233Z,56.43
2018-07-31T02:04:42.662Z,56.36
2018-07-31T02:07:09.926Z,57.38
2018-07-31T02:09:37.232Z,57.00
2018-07-31T02:12:04.477Z,56.96
2018-07-31T02:14:31.781Z,56.80
2018-07-31T02:16:59.039Z,57.00
2018-07-31T02:19:26.308Z,56.75
2018-07-31T02:21:53.584Z,56.07
2018-07-31T02:24:20.946Z,55.44
2018-07-31T02:26:48.177Z,55.43
2018-07-31T02:29:20.040Z,55.12
2018-07-31T02:31:47.311Z,55.36
2018-07-31T02:34:14.559Z,55.58
2018-07-31T02:36:41.811Z,56.39
2018-07-31T02:39:09.067Z,57.31
2018-07-31T02:41:36.370Z,57.59
2018-07-31T02:44:03.748Z,58.11
2018-07-31T02:46:31.020Z,57.71
2018-07-31T02:48:58.283Z,57.29
2018-07-31T02:51:25.620Z,57.64
2018-07-31T02:53:52.912Z,57.62
2018-07-31T02:56:20.202Z,57.47
2018-07-31T02:58:47.450Z,57.63
2018-07-31T03:01:14.752Z,57.83
2018-07-31T03:03:42.054Z,59.06
2018-07-31T03:06:09.363Z,59.30
2018-07-31T03:08:36.666Z,59.29
2018-07-31T03:11:05.258Z,59.16
2018-07-31T03:13:32.510Z,59.05
2018-07-31T03:15:59.790Z,59.16
2018-07-31T03:18:28.018Z,59.60
2018-07-31T03:20:55.374Z,59.73
2018-07-31T03:23:22.745Z,59.57
2018-07-31T03:25:51.322Z,59.66
2018-07-31T03:28:20.354Z,59.58
2018-07-31T03:30:48.802Z,59.95
2018-07-31T03:33:16.152Z,59.47
2018-07-31T03:35:43.513Z,59.99
2018-07-31T03:38:10.883Z,59.99
2018-07-31T03:40:38.251Z,60.00
2018-07-31T03:43:05.656Z,59.47
2018-07-31T03:45:33.073Z,60.04
2018-07-31T03:48:00.409Z,60.68
2018-07-31T03:50:27.768Z,61.51
2018-07-31T03:52:55.104Z,61.40
2018-07-31T03:55:22.762Z,62.15
2018-07-31T03:57:50.092Z,61.95
2018-07-31T04:00:17.482Z,61.92
2018-07-31T04:02:44.870Z,62.26
2018-07-31T04:05:12.279Z,62.07
2018-07-31T04:07:39.841Z,62.76
2018-07-31T04:10:07.220Z,62.81
2018-07-31T04:12:34.639Z,62.74
2018-07-31T04:15:02.153Z,62.50
2018-07-31T04:17:29.845Z,62.75
2018-07-31T04:19:57.322Z,62.85
2018-07-31T04:22:24.728Z,63.12
2018-07-31T04:24:52.298Z,62.38
2018-07-31T04:27:19.618Z,62.96
2018-07-31T04:29:47.371Z,62.93
2018-07-31T04:32:15.348Z,62.61
2018-07-31T04:34:42.792Z,62.76
2018-07-31T04:37:10.217Z,62.81
2018-07-31T04:39:37.704Z,62.00
2018-07-31T04:42:05.085Z,61.09
2018-07-31T04:44:32.422Z,60.73
2018-07-31T04:46:59.848Z,59.77
2018-07-31T04:49:27.436Z,58.94
2018-07-31T04:51:54.918Z,58.20
2018-07-31T04:54:22.275Z,58.34
2018-07-31T04:56:49.771Z,57.35
2018-07-31T04:59:17.118Z,57.50
2018-07-31T05:01:44.471Z,57.24
2018-07-31T05:04:11.951Z,56.87
2018-07-31T05:06:39.406Z,56.49
2018-07-31T05:09:08.870Z,55.63
2018-07-31T05:11:36.342Z,54.76
2018-07-31T05:14:04.398Z,54.00
2018-07-31T05:16:31.764Z,53.17
2018-07-31T05:18:59.147Z,51.58
2018-07-31T05:21:27.586Z,50.88
2018-07-31T05:23:54.930Z,47.83
2018-07-31T05:26:22.385Z,46.83
2018-07-31T05:28:49.762Z,45.18
2018-07-31T05:31:17.261Z,44.26
2018-07-31T05:33:44.712Z,43.72
2018-07-31T05:36:12.224Z,43.41
2018-07-31T05:38:39.607Z,43.32
2018-07-31T05:41:07.066Z,41.73
2018-07-31T05:43:34.970Z,41.41
2018-07-31T05:46:02.366Z,41.04
2018-07-31T05:48:29.820Z,41.03
2018-07-31T05:50:57.171Z,39.22
2018-07-31T05:53:24.547Z,38.36
2018-07-31T05:55:51.894Z,38.63
2018-07-31T05:58:19.203Z,37.77
2018-07-31T06:00:46.553Z,37.51
2018-07-31T06:03:13.891Z,36.36
2018-07-31T06:05:41.362Z,36.47
2018-07-31T06:08:08.714Z,35.41
2018-07-31T06:10:37.761Z,35.25
2018-07-31T06:13:05.194Z,34.33
2018-07-31T06:15:33.519Z,33.92
2018-07-31T06:18:00.911Z,34.00
2018-07-31T06:20:28.379Z,34.04
2018-07-31T06:22:55.864Z,34.17
2018-07-31T06:25:23.239Z,34.64
2018-07-31T06:27:50.571Z,34.01
2018-07-31T06:30:17.890Z,33.05
2018-07-31T06:32:45.257Z,32.76
2018-07-31T06:35:12.563Z,31.81
2018-07-31T06:37:40.065Z,31.96
2018-07-31T06:40:07.895Z,31.88
2018-07-31T06:42:35.287Z,31.67
2018-07-31T06:45:02.668Z,31.92
2018-07-31T06:47:30.034Z,31.80
2018-07-31T06:49:57.334Z,30.96
2018-07-31T06:52:24.693Z,31.25
2018-07-31T06:54:52.043Z,30.76
2018-07-31T06:57:32.723Z,30.59
2018-07-31T07:00:00.028Z,29.97
2018-07-31T07:02:27.412Z,30.42
2018-07-31T07:04:54.708Z,30.34
2018-07-31T07:07:22.034Z,29.64
2018-07-31T07:09:49.866Z,29.77
2018-07-31T07:12:17.235Z,29.16
2018-07-31T07:14:44.549Z,29.88
2018-07-31T07:17:12.480Z,29.07
2018-07-31T07:19:41.037Z,28.44
2018-07-31T07:22:08.447Z,28.43
2018-07-31T07:24:35.811Z,28.64
2018-07-31T07:27:03.753Z,28.40
2018-07-31T07:29:32.932Z,28.04
2018-07-31T07:32:03.701Z,27.20
2018-07-31T07:34:34.213Z,27.36
2018-07-31T07:37:03.155Z,26.65
2018-07-31T07:39:31.498Z,25.94
2018-07-31T07:41:58.858Z,26.39
2018-07-31T07:44:26.182Z,25.42
2018-07-31T07:46:53.704Z,25.60
2018-07-31T07:49:21.063Z,25.18
2018-07-31T07:51:48.418Z,24.95
2018-07-31T07:54:15.974Z,24.31
2018-07-31T07:56:43.354Z,25.21
2018-07-31T07:59:10.680Z,25.99
2018-07-31T08:01:38.135Z,25.67
2018-07-31T08:04:05.746Z,25.04
2018-07-31T08:06:33.281Z,24.27
2018-07-31T08:09:00.637Z,24.57
2018-07-31T08:11:27.946Z,24.08
2018-07-31T08:13:55.335Z,24.36
2018-07-31T08:16:24.085Z,24.85
2018-07-31T08:18:51.473Z,24.66
2018-07-31T08:21:18.826Z,24.02
2018-07-31T08:23:46.247Z,22.84
2018-07-31T08:26:13.661Z,22.83
2018-07-31T08:28:41.183Z,22.16
2018-07-31T08:31:08.536Z,22.85
2018-07-31T08:33:36.277Z,23.41
2018-07-31T08:36:03.758Z,22.34
2018-07-31T08:38:31.292Z,20.99
2018-07-31T08:40:58.669Z,21.51
2018-07-31T08:43:26.044Z,21.59
2018-07-31T08:45:53.422Z,21.44
2018-07-31T08:48:20.813Z,20.68
2018-07-31T08:50:48.129Z,20.71
2018-07-31T08:53:15.764Z,20.44
2018-07-31T08:55:43.152Z,19.64
2018-07-31T08:58:10.443Z,19.74
2018-07-31T09:00:37.861Z,19.58
2018-07-31T09:03:05.172Z,19.46
2018-07-31T09:05:33.163Z,19.42
2018-07-31T09:08:00.706Z,19.43
2018-07-31T09:10:28.121Z,18.08
2018-07-31T09:12:55.627Z,17.50
2018-07-31T09:15:23.393Z,18.17
2018-07-31T09:17:51.673Z,18.37
2018-07-31T09:20:19.012Z,17.43
2018-07-31T09:22:48.495Z,17.13
2018-07-31T09:25:17.282Z,16.63
2018-07-31T09:27:45.673Z,16.75
2018-07-31T09:30:13.440Z,15.48
2018-07-31T09:32:49.069Z,15.95
2018-07-31T09:35:30.585Z,16.19
2018-07-31T09:37:57.983Z,15.56
2018-07-31T09:40:25.355Z,16.00
2018-07-31T09:42:52.722Z,15.75
2018-07-31T09:45:20.164Z,15.60
2018-07-31T09:47:47.737Z,15.94
2018-07-31T09:50:16.006Z,16.08
2018-07-31T09:52:43.562Z,16.28
2018-07-31T09:55:10.953Z,15.73
2018-07-31T09:57:38.390Z,15.66
2018-07-31T10:00:06.930Z,14.31
2018-07-31T10:02:34.358Z,13.81
2018-07-31T10:05:02.699Z,14.21
2018-07-31T10:07:30.089Z,14.48
2018-07-31T10:09:57.573Z,13.97
2018-07-31T10:12:25.229Z,14.79
2018-07-31T10:14:52.772Z,15.10
2018-07-31T10:19:56.932Z,15.04
2018-07-31T10:22:24.473Z,14.71
2018-07-31T10:24:53.425Z,15.27
2018-07-31T10:27:21.673Z,15.35
2018-07-31T10:29:50.279Z,15.35
2018-07-31T10:32:18.657Z,14.56
2018-07-31T10:34:46.693Z,14.46
2018-07-31T10:37:14.973Z,13.45
2018-07-31T10:39:42.621Z,12.90
2018-07-31T10:42:10.027Z,12.74
2018-07-31T10:44:37.456Z,13.73
2018-07-31T10:47:05.039Z,13.83
2018-07-31T10:49:33.314Z,13.02
2018-07-31T10:52:00.964Z,13.11
2018-07-31T10:54:28.376Z,13.32
2018-07-31T10:56:55.831Z,12.36
2018-07-31T10:59:23.266Z,11.98
2018-07-31T11:01:50.702Z,12.42
2018-07-31T11:04:18.149Z,12.45
2018-07-31T11:06:45.704Z,13.00
2018-07-31T11:09:13.138Z,12.74
2018-07-31T11:11:41.047Z,13.42
2018-07-31T11:14:08.966Z,12.68
2018-07-31T11:16:36.588Z,12.75
2018-07-31T11:19:04.103Z,13.36
2018-07-31T11:21:31.720Z,13.94
2018-07-31T11:23:59.380Z,12.74
2018-07-31T11:26:26.841Z,12.57
2018-07-31T11:28:54.890Z,13.48
2018-07-31T11:31:22.245Z,16.06
2018-07-31T11:33:49.910Z,17.41
2018-07-31T11:36:17.444Z,17.68
2018-07-31T11:38:44.792Z,18.76
2018-07-31T11:41:12.289Z,18.92
2018-07-31T11:43:39.644Z,19.03
2018-07-31T11:46:07.200Z,19.48
2018-07-31T11:48:48.489Z,20.11
2018-07-31T11:51:15.996Z,19.69
2018-07-31T11:53:43.350Z,19.51
2018-07-31T11:56:10.873Z,19.10
2018-07-31T11:58:38.385Z,19.40
2018-07-31T12:01:05.723Z,17.97
2018-07-31T12:03:33.248Z,18.07
2018-07-31T12:06:00.672Z,16.10
2018-07-31T12:08:28.054Z,15.49
2018-07-31T12:10:55.402Z,15.90
2018-07-31T12:13:22.733Z,14.11
2018-07-31T12:16:00.562Z,13.90
2018-07-31T12:18:38.888Z,13.73
2018-07-31T12:21:16.894Z,14.42
2018-07-31T12:23:44.314Z,13.62
2018-07-31T12:26:11.781Z,13.87
2018-07-31T12:28:39.162Z,14.33
2018-07-31T12:31:06.553Z,13.96
2018-07-31T12:33:34.092Z,13.86
2018-07-31T12:36:01.455Z,13.47
2018-07-31T12:38:28.829Z,13.01
2018-07-31T12:40:56.139Z,13.38
2018-07-31T12:43:23.488Z,12.87
2018-07-31T12:45:50.880Z,14.01
2018-07-31T12:48:18.224Z,13.54
2018-07-31T12:50:45.596Z,13.78
2018-07-31T12:53:12.961Z,13.94
2018-07-31T12:55:40.255Z,13.48
2018-07-31T12:58:07.611Z,13.35
2018-07-31T13:00:35.382Z,13.09
2018-07-31T13:03:02.755Z,13.27
2018-07-31T13:05:30.139Z,12.74
2018-07-31T13:07:57.472Z,12.76
2018-07-31T13:10:24.856Z,13.39
2018-07-31T13:12:52.220Z,13.31
2018-07-31T13:15:19.570Z,13.14
2018-07-31T13:17:46.909Z,13.86
2018-07-31T13:20:14.346Z,12.94
2018-07-31T13:22:41.723Z,13.04
2018-07-31T13:25:09.116Z,13.99
2018-07-31T13:27:36.499Z,13.37
2018-07-31T13:30:04.603Z,13.44
2018-07-31T13:32:45.848Z,13.29
2018-07-31T13:35:13.484Z,13.81
2018-07-31T13:37:41.010Z,15.14
2018-07-31T13:40:08.602Z,14.67
2018-07-31T13:42:36.040Z,15.08
2018-07-31T13:45:03.429Z,15.50
2018-07-31T13:47:30.925Z,15.53
2018-07-31T13:49:58.270Z,15.68
2018-07-31T13:52:25.732Z,15.80
2018-07-31T13:54:53.113Z,16.52
2018-07-31T13:57:20.518Z,16.32
2018-07-31T13:59:47.999Z,14.77
2018-07-31T14:02:15.398Z,15.00
2018-07-31T14:04:42.823Z,15.11
2018-07-31T14:07:10.568Z,15.32
2018-07-31T14:09:37.848Z,15.30
2018-07-31T14:12:05.235Z,15.69
2018-07-31T14:14:32.626Z,16.38
2018-07-31T14:17:00.060Z,16.23
2018-07-31T14:19:27.534Z,17.42
2018-07-31T14:21:54.926Z,16.69
2018-07-31T14:24:22.367Z,17.08
2018-07-31T14:26:50.049Z,17.09
2018-07-31T14:29:17.528Z,16.49
2018-07-31T14:31:44.904Z,16.32
2018-07-31T14:34:12.409Z,15.90
2018-07-31T14:36:40.065Z,16.08
2018-07-31T14:39:08.971Z,16.05
2018-07-31T14:41:36.869Z,16.16
2018-07-31T14:44:04.375Z,16.08
2018-07-31T14:46:31.967Z,16.38
2018-07-31T14:48:59.281Z,15.96
2018-07-31T14:51:26.647Z,16.56
2018-07-31T14:53:54.023Z,17.14
2018-07-31T14:56:25.355Z,17.10
2018-07-31T14:58:53.463Z,16.68
2018-07-31T15:01:26.179Z,15.89
2018-07-31T15:03:58.593Z,16.88
2018-07-31T15:06:30.715Z,16.77
2018-07-31T15:09:03.015Z,17.04
2018-07-31T15:11:35.831Z,16.92
2018-07-31T15:14:09.042Z,16.65
2018-07-31T15:16:36.721Z,16.93
2018-07-31T15:19:04.050Z,16.98
2018-07-31T15:21:31.611Z,17.09
2018-07-31T15:23:59.006Z,17.12
2018-07-31T15:26:26.582Z,17.53
2018-07-31T15:28:53.925Z,17.40
2018-07-31T15:31:21.288Z,17.87
2018-07-31T15:33:48.674Z,18.10
2018-07-31T15:36:16.024Z,17.64
2018-07-31T15:38:43.570Z,18.58
2018-07-31T15:41:10.956Z,18.91
2018-07-31T15:43:38.379Z,19.47
2018-07-31T15:46:05.800Z,18.88
2018-07-31T15:48:33.183Z,18.74
2018-07-31T15:51:00.635Z,18.40
2018-07-31T15:53:28.052Z,19.07
2018-07-31T15:55:55.643Z,18.71
2018-07-31T15:58:23.084Z,20.43
2018-07-31T16:00:50.575Z,19.64
2018-07-31T16:03:17.971Z,20.13
2018-07-31T16:05:45.473Z,20.35
2018-07-31T16:08:14.059Z,20.64
2018-07-31T16:10:41.434Z,21.34
2018-07-31T16:13:08.841Z,20.98
2018-07-31T16:15:36.811Z,20.62
2018-07-31T16:18:04.256Z,20.39
2018-07-31T16:20:31.640Z,21.26
2018-07-31T16:22:59.069Z,21.77
2018-07-31T16:25:26.539Z,21.78
2018-07-31T16:27:53.995Z,21.87
2018-07-31T16:30:21.387Z,22.25
2018-07-31T16:32:48.770Z,23.01
2018-07-31T16:35:16.079Z,23.14
2018-07-31T16:37:43.589Z,23.48
2018-07-31T16:40:10.901Z,23.79
2018-07-31T16:42:38.213Z,23.73
2018-07-31T16:45:05.728Z,23.66
2018-07-31T16:47:33.218Z,24.01
2018-07-31T16:50:00.569Z,24.34
2018-07-31T16:52:28.006Z,24.55
2018-07-31T16:54:55.428Z,24.81
2018-07-31T16:57:22.831Z,23.86
2018-07-31T16:59:50.926Z,24.37
2018-07-31T17:02:18.324Z,24.95
2018-07-31T17:04:46.470Z,24.93
2018-07-31T17:07:13.909Z,25.34
2018-07-31T17:09:43.507Z,24.73
2018-07-31T17:12:10.860Z,24.43
2018-07-31T17:14:38.207Z,24.97
2018-07-31T17:17:05.815Z,24.59
2018-07-31T17:19:33.215Z,25.03
2018-07-31T17:22:09.096Z,24.28
2018-07-31T17:24:39.279Z,25.13
2018-07-31T17:27:06.960Z,25.53
2018-07-31T17:29:35.471Z,25.47
2018-07-31T17:32:02.899Z,25.56
2018-07-31T17:34:31.383Z,26.00
2018-07-31T17:36:58.827Z,25.67
2018-07-31T17:39:26.337Z,26.59
2018-07-31T17:41:53.882Z,26.57
2018-07-31T17:44:21.898Z,26.80
2018-07-31T17:46:50.283Z,26.87
2018-07-31T17:49:18.451Z,26.53
2018-07-31T17:51:45.886Z,26.19
2018-07-31T17:54:13.594Z,26.95
2018-07-31T17:56:41.098Z,26.06
2018-07-31T17:59:08.485Z,25.81
2018-07-31T18:01:36.210Z,27.37
2018-07-31T18:04:04.098Z,27.31
2018-07-31T18:06:31.566Z,27.33
2018-07-31T18:08:59.450Z,27.38
2018-07-31T18:11:27.660Z,26.76
2018-07-31T18:13:55.230Z,27.78
2018-07-31T18:16:23.169Z,27.84
2018-07-31T18:18:52.766Z,27.88
2018-07-31T18:21:20.330Z,28.63
2018-07-31T18:23:47.791Z,29.83
2018-07-31T18:26:15.132Z,28.91
2018-07-31T18:28:42.836Z,29.64
2018-07-31T18:31:10.409Z,30.13
2018-07-31T18:33:37.997Z,30.58
2018-07-31T18:36:06.173Z,30.29
2018-07-31T18:38:33.886Z,29.60
2018-07-31T18:41:01.612Z,31.38
2018-07-31T18:43:29.516Z,32.04
2018-07-31T18:45:56.959Z,32.37
2018-07-31T18:48:24.364Z,32.68
2018-07-31T18:50:51.726Z,32.34
2018-07-31T18:53:19.120Z,33.64
2018-07-31T18:55:46.542Z,34.10
2018-07-31T18:58:13.899Z,35.90
2018-07-31T19:00:41.428Z,35.79
2018-07-31T19:03:08.891Z,36.03
2018-07-31T19:05:36.523Z,35.88
2018-07-31T19:08:03.904Z,35.93
2018-07-31T19:10:33.270Z,34.98
2018-07-31T19:13:03.744Z,36.55
2018-07-31T19:15:31.881Z,37.25
2018-07-31T19:18:00.336Z,36.96
2018-07-31T19:20:27.820Z,36.07
2018-07-31T19:22:55.545Z,35.49
2018-07-31T19:25:24.128Z,35.24
2018-07-31T19:27:51.706Z,36.12
2018-07-31T19:30:19.492Z,36.63
2018-07-31T19:32:47.253Z,36.61
2018-07-31T19:35:16.107Z,36.89
2018-07-31T19:37:44.022Z,37.74
2018-07-31T19:40:24.460Z,39.28
2018-07-31T19:42:54.252Z,39.00
2018-07-31T19:45:22.183Z,39.11
2018-07-31T19:47:51.653Z,38.43
2018-07-31T19:50:20.085Z,38.26
2018-07-31T19:52:48.251Z,39.25
2018-07-31T19:55:18.339Z,39.43
2018-07-31T19:57:46.359Z,39.70
2018-07-31T20:00:17.563Z,40.00
2018-07-31T20:02:45.586Z,40.38
2018-07-31T20:05:14.015Z,40.59
2018-07-31T20:07:41.796Z,40.91
2018-07-31T20:10:10.150Z,40.56
2018-07-31T20:12:38.329Z,39.89
2018-07-31T20:15:09.054Z,40.19
2018-07-31T20:17:36.572Z,39.63
2018-07-31T20:20:04.108Z,38.53
2018-07-31T20:22:31.402Z,38.58
2018-07-31T20:24:58.680Z,39.45
2018-07-31T20:27:25.990Z,39.94
2018-07-31T20:29:53.235Z,39.31
2018-07-31T20:32:20.527Z,39.98
2018-07-31T20:34:47.910Z,40.44
2018-07-31T20:37:15.182Z,40.17
2018-07-31T20:39:42.432Z,39.60
2018-07-31T20:42:09.706Z,40.65
2018-07-31T20:44:37.004Z,40.18
2018-07-31T20:47:04.331Z,40.47
2018-07-31T20:49:31.584Z,41.89
2018-07-31T20:51:58.851Z,41.55
2018-07-31T20:54:26.101Z,41.50
2018-07-31T20:56:53.361Z,41.51
2018-07-31T20:59:20.586Z,42.43
2018-07-31T21:01:47.855Z,42.77
2018-07-31T21:04:15.115Z,43.59
2018-07-31T21:06:42.359Z,43.53
2018-07-31T21:09:11.346Z,44.02
2018-07-31T21:11:38.626Z,44.06
2018-07-31T21:14:05.905Z,44.01
2018-07-31T21:16:33.189Z,44.09
2018-07-31T21:19:00.466Z,45.37
2018-07-31T21:21:27.732Z,46.07
2018-07-31T21:23:55.050Z,45.54
2018-07-31T21:26:22.323Z,46.72
2018-07-31T21:28:49.573Z,46.47
2018-07-31T21:31:24.123Z,47.06
2018-07-31T21:33:51.573Z,46.83
2018-07-31T21:36:18.917Z,48.33
2018-07-31T21:38:46.162Z,48.56
2018-07-31T21:41:13.475Z,48.49
2018-07-31T21:43:40.715Z,48.01
2018-07-31T21:46:08.066Z,48.06
2018-07-31T21:48:35.336Z,47.83
2018-07-31T21:51:02.597Z,47.59
2018-07-31T21:53:29.894Z,47.73
2018-07-31T21:55:57.185Z,47.41
2018-07-31T21:58:24.438Z,47.07
2018-07-31T22:00:57.438Z,46.79
2018-07-31T22:03:24.721Z,46.85
2018-07-31T22:05:52.096Z,47.20
2018-07-31T22:08:19.343Z,47.62
2018-07-31T22:10:46.594Z,48.04
2018-07-31T22:13:13.867Z,48.36
2018-07-31T22:15:41.175Z,49.15
2018-07-31T22:18:08.658Z,48.26
2018-07-31T22:20:35.992Z,48.78
2018-07-31T22:23:03.281Z,49.07
2018-07-31T22:25:30.534Z,48.77
2018-07-31T22:27:57.826Z,49.14
2018-07-31T22:30:25.077Z,49.13
2018-07-31T22:32:52.352Z,49.35
2018-07-31T22:35:19.598Z,48.23
2018-07-31T22:37:46.874Z,48.57
2018-07-31T22:40:14.140Z,48.54
2018-07-31T22:42:51.743Z,50.25
2018-07-31T22:45:19.038Z,50.26
2018-07-31T22:47:46.301Z,50.42
2018-07-31T22:50:13.585Z,50.82
2018-07-31T22:52:40.836Z,50.33
2018-07-31T22:55:08.123Z,50.50
2018-07-31T22:57:35.398Z,50.69
2018-07-31T23:00:02.662Z,50.80
2018-07-31T23:02:29.966Z,50.16
2018-07-31T23:04:57.213Z,51.17
2018-07-31T23:07:24.547Z,51.52
2018-07-31T23:10:01.223Z,51.08
2018-07-31T23:12:28.553Z,51.29
2018-07-31T23:14:55.786Z,51.27
2018-07-31T23:17:23.071Z,51.78
2018-07-31T23:19:50.444Z,52.08
2018-07-31T23:22:29.299Z,51.84
2018-07-31T23:24:56.565Z,51.59
2018-07-31T23:27:23.855Z,52.07
2018-07-31T23:29:51.093Z,52.17
2018-07-31T23:32:18.364Z,52.80
2018-07-31T23:34:45.591Z,52.85
2018-07-31T23:37:14.567Z,53.40
2018-07-31T23:39:41.795Z,52.87
2018-07-31T23:42:09.059Z,53.17
2018-07-31T23:44:36.326Z,53.06
2018-07-31T23:47:03.578Z,52.82
2018-07-31T23:49:31.041Z,53.18
2018-07-31T23:51:58.345Z,53.01
2018-07-31T23:54:25.587Z,53.30
2018-07-31T23:56:52.863Z,53.06
2018-07-31T23:59:20.145Z,52.55
